createdAt,value
2018-05-15T00:02:22.858Z,94914.72
2018-05-15T00:04:49.524Z,94909.30
2018-05-15T00:07:16.196Z,94912.73
2018-05-15T00:09:42.818Z,94903.41
2018-05-15T00:12:09.499Z,94904.66
2018-05-15T00:14:36.227Z,94896.17
2018-05-15T00:17:02.910Z,94906.52
2018-05-15T00:19:29.547Z,94905.30
2018-05-15T00:21:56.180Z,94897.59
2018-05-15T00:24:22.823Z,94888.44
2018-05-15T00:26:49.468Z,94887.97
2018-05-15T00:29:16.141Z,94885.78
2018-05-15T00:31:42.780Z,94880.48
2018-05-15T00:34:09.425Z,94872.91
2018-05-15T00:36:36.114Z,94864.08
2018-05-15T00:39:02.750Z,94855.75
2018-05-15T00:41:29.387Z,94860.20
2018-05-15T00:43:56.035Z,94862.91
2018-05-15T00:46:22.708Z,94865.19
2018-05-15T00:48:49.353Z,94860.98
2018-05-15T00:51:15.988Z,94857.11
2018-05-15T00:53:42.646Z,94860.80
2018-05-15T00:56:09.293Z,94852.95
2018-05-15T00:58:35.937Z,94858.41
2018-05-15T01:01:02.580Z,94861.89
2018-05-15T01:03:29.264Z,94860.64
2018-05-15T01:05:55.896Z,94849.37
2018-05-15T01:08:22.535Z,94849.95
2018-05-15T01:10:49.217Z,94851.77
2018-05-15T01:13:15.852Z,94850.77
2018-05-15T01:15:42.532Z,94844.33
2018-05-15T01:18:09.210Z,94838.91
2018-05-15T01:20:35.846Z,94853.92
2018-05-15T01:23:02.529Z,94855.27
2018-05-15T01:25:29.167Z,94857.58
2018-05-15T01:27:55.862Z,94855.57
2018-05-15T01:30:22.492Z,94867.42
2018-05-15T01:32:49.130Z,94858.13
2018-05-15T01:35:15.773Z,94848.58
2018-05-15T01:37:42.459Z,94847.66
2018-05-15T01:40:09.122Z,94847.86
2018-05-15T01:42:35.802Z,94839.83
2018-05-15T01:45:02.488Z,94846.16
2018-05-15T01:47:29.187Z,94844.89
2018-05-15T01:49:55.861Z,94851.31
2018-05-15T01:52:22.462Z,94843.38
2018-05-15T01:54:49.146Z,94847.92
2018-05-15T01:57:15.794Z,94852.88
2018-05-15T01:59:42.432Z,94856.16
2018-05-15T02:02:09.073Z,94849.52
2018-05-15T02:04:35.764Z,94856.54
2018-05-15T02:07:02.441Z,94848.93
2018-05-15T02:09:29.118Z,94854.05
2018-05-15T02:11:55.790Z,94853.25
2018-05-15T02:14:22.482Z,94850.78
2018-05-15T02:16:49.129Z,94848.97
2018-05-15T02:19:15.760Z,94848.59
2018-05-15T02:21:42.449Z,94846.73
2018-05-15T02:24:09.124Z,94843.20
2018-05-15T02:26:35.824Z,94846.99
2018-05-15T02:29:02.455Z,94853.17
2018-05-15T02:31:29.092Z,94848.00
2018-05-15T02:33:55.770Z,94845.73
2018-05-15T02:36:22.408Z,94840.84
2018-05-15T02:38:49.108Z,94837.41
2018-05-15T02:41:15.746Z,94838.80
2018-05-15T02:43:42.507Z,94841.24
2018-05-15T02:46:09.144Z,94839.97
2018-05-15T02:48:35.809Z,94829.59
2018-05-15T02:51:02.443Z,94838.21
2018-05-15T02:53:29.084Z,94841.63
2018-05-15T02:55:55.762Z,94851.12
2018-05-15T02:58:22.401Z,94844.81
2018-05-15T03:00:49.088Z,94848.81
2018-05-15T03:03:15.723Z,94859.28
2018-05-15T03:05:42.404Z,94857.30
2018-05-15T03:08:09.026Z,94868.40
2018-05-15T03:10:35.665Z,94865.58
2018-05-15T03:13:02.369Z,94870.93
2018-05-15T03:15:29.013Z,94867.33
2018-05-15T03:17:55.685Z,94864.23
2018-05-15T03:20:22.381Z,94862.52
2018-05-15T03:22:49.061Z,94857.34
2018-05-15T03:25:15.697Z,94862.53
2018-05-15T03:27:42.377Z,94861.03
2018-05-15T03:30:09.019Z,94856.59
2018-05-15T03:32:35.646Z,94852.28
2018-05-15T03:35:04.396Z,94851.44
2018-05-15T03:37:28.931Z,94849.37
2018-05-15T03:39:57.004Z,94852.52
2018-05-15T03:42:22.296Z,94860.09
2018-05-15T03:44:48.931Z,94852.98
2018-05-15T03:47:15.642Z,94863.66
2018-05-15T03:49:42.305Z,94867.94
2018-05-15T03:52:09.040Z,94861.16
2018-05-15T03:54:35.722Z,94859.94
2018-05-15T03:57:02.354Z,94862.78
2018-05-15T03:59:28.990Z,94859.86
2018-05-15T04:01:55.632Z,94853.88
2018-05-15T04:04:22.274Z,94851.13
2018-05-15T04:06:48.970Z,94857.41
2018-05-15T04:09:15.608Z,94855.58
2018-05-15T04:11:42.247Z,94852.94
2018-05-15T04:14:08.950Z,94859.20
2018-05-15T04:16:35.582Z,94857.60
2018-05-15T04:19:02.351Z,94859.77
2018-05-15T04:21:29.002Z,94867.95
2018-05-15T04:23:55.640Z,94868.56
2018-05-15T04:26:22.274Z,94869.05
2018-05-15T04:28:48.922Z,94860.42
2018-05-15T04:31:15.611Z,94874.98
2018-05-15T04:33:42.287Z,94878.91
2018-05-15T04:36:08.964Z,94878.59
2018-05-15T04:38:35.653Z,94885.08
2018-05-15T04:41:02.290Z,94897.39
2018-05-15T04:43:29.019Z,94897.02
2018-05-15T04:45:55.580Z,94900.31
2018-05-15T04:48:22.222Z,94906.90
2018-05-15T04:50:48.957Z,94907.98
2018-05-15T04:53:15.644Z,94900.09
2018-05-15T04:55:42.310Z,94902.73
2018-05-15T04:58:08.975Z,94903.43
2018-05-15T05:00:35.608Z,94909.94
2018-05-15T05:03:02.246Z,94915.98
2018-05-15T05:05:28.921Z,94911.80
2018-05-15T05:07:55.559Z,94913.55
2018-05-15T05:10:22.253Z,94906.66
2018-05-15T05:12:48.883Z,94905.66
2018-05-15T05:15:15.523Z,94916.86
2018-05-15T05:17:42.226Z,94920.91
2018-05-15T05:20:08.911Z,94923.59
2018-05-15T05:22:35.588Z,94924.48
2018-05-15T05:25:02.279Z,94919.51
2018-05-15T05:27:28.951Z,94917.05
2018-05-15T05:29:55.593Z,94914.80
2018-05-15T05:32:22.311Z,94909.09
2018-05-15T05:34:48.981Z,94904.69
2018-05-15T05:37:15.656Z,94902.58
2018-05-15T05:39:42.270Z,94911.13
2018-05-15T05:42:08.991Z,94909.30
2018-05-15T05:44:35.636Z,94911.19
2018-05-15T05:47:02.296Z,94905.94
2018-05-15T05:49:28.931Z,94907.83
2018-05-15T05:51:55.666Z,94906.77
2018-05-15T05:54:23.006Z,94909.76
2018-05-15T05:56:49.639Z,94905.70
2018-05-15T05:59:16.277Z,94910.80
2018-05-15T06:01:42.931Z,94910.54
2018-05-15T06:04:09.639Z,94905.14
2018-05-15T06:06:36.303Z,94910.50
2018-05-15T06:09:02.959Z,94898.77
2018-05-15T06:11:29.672Z,94903.54
2018-05-15T06:13:56.322Z,94899.09
2018-05-15T06:16:22.991Z,94898.14
2018-05-15T06:18:49.662Z,94892.34
2018-05-15T06:21:16.325Z,94900.31
2018-05-15T06:23:43.009Z,94905.70
2018-05-15T06:26:09.643Z,94906.39
2018-05-15T06:28:36.327Z,94898.11
2018-05-15T06:31:03.193Z,94894.63
2018-05-15T06:33:29.831Z,94896.98
2018-05-15T06:35:56.524Z,94897.73
2018-05-15T06:38:23.223Z,94899.81
2018-05-15T06:40:49.903Z,94905.41
2018-05-15T06:43:16.563Z,94905.54
2018-05-15T06:45:44.335Z,94906.64
2018-05-15T06:48:10.992Z,94912.27
2018-05-15T06:50:37.677Z,94912.58
2018-05-15T06:53:04.315Z,94912.48
2018-05-15T06:55:30.991Z,94906.38
2018-05-15T06:57:57.666Z,94904.83
2018-05-15T07:00:24.325Z,94905.52
2018-05-15T07:02:50.970Z,94909.09
2018-05-15T07:05:17.617Z,94910.80
2018-05-15T07:07:44.349Z,94891.20
2018-05-15T07:10:10.960Z,94890.39
2018-05-15T07:12:37.644Z,94894.42
2018-05-15T07:15:04.309Z,94894.97
2018-05-15T07:17:31.028Z,94893.28
2018-05-15T07:19:59.064Z,94884.30
2018-05-15T07:22:24.353Z,94880.56
2018-05-15T07:24:51.048Z,94884.75
2018-05-15T07:27:17.750Z,94872.65
2018-05-15T07:29:44.390Z,94876.55
2018-05-15T07:32:11.028Z,94875.58
2018-05-15T07:34:37.680Z,94890.13
2018-05-15T07:37:04.341Z,94879.81
2018-05-15T07:39:31.577Z,94879.50
2018-05-15T07:41:58.233Z,94873.19
2018-05-15T07:44:24.889Z,94877.35
2018-05-15T07:46:51.527Z,94876.89
2018-05-15T07:49:18.191Z,94873.66
2018-05-15T07:51:44.833Z,94863.92
2018-05-15T07:54:11.682Z,94863.41
2018-05-15T07:56:38.327Z,94866.33
2018-05-15T07:59:04.962Z,94871.34
2018-05-15T08:01:31.654Z,94870.07
2018-05-15T08:03:58.321Z,94873.88
2018-05-15T08:06:24.967Z,94869.38
2018-05-15T08:08:51.620Z,94868.14
2018-05-15T08:11:18.347Z,94867.81
2018-05-15T08:13:45.028Z,94870.28
2018-05-15T08:16:11.675Z,94873.50
2018-05-15T08:18:38.323Z,94868.20
2018-05-15T08:21:05.324Z,94865.48
2018-05-15T08:23:32.020Z,94866.41
2018-05-15T08:25:58.656Z,94868.73
2018-05-15T08:28:25.292Z,94867.95
2018-05-15T08:30:52.049Z,94871.20
2018-05-15T08:33:18.603Z,94864.72
2018-05-15T08:35:45.241Z,94862.41
2018-05-15T08:38:11.932Z,94865.75
2018-05-15T08:40:38.543Z,94865.64
2018-05-15T08:43:05.263Z,94869.44
2018-05-15T08:45:32.948Z,94860.81
2018-05-15T08:47:59.593Z,94868.09
2018-05-15T08:50:26.294Z,94871.20
2018-05-15T08:52:52.974Z,94868.82
2018-05-15T08:55:19.668Z,94872.69
2018-05-15T08:57:46.344Z,94874.17
2018-05-15T09:00:12.981Z,94870.08
2018-05-15T09:02:39.670Z,94871.00
2018-05-15T09:05:06.312Z,94873.67
2018-05-15T09:07:32.954Z,94871.89
2018-05-15T09:09:59.588Z,94874.10
2018-05-15T09:12:26.274Z,94864.45
2018-05-15T09:14:52.914Z,94873.03
2018-05-15T09:17:19.550Z,94871.62
2018-05-15T09:19:46.236Z,94875.25
2018-05-15T09:22:12.877Z,94872.99
2018-05-15T09:24:39.535Z,94872.59
2018-05-15T09:27:06.182Z,94874.44
2018-05-15T09:29:32.817Z,94869.88
2018-05-15T09:31:59.500Z,94884.98
2018-05-15T09:34:26.132Z,94888.55
2018-05-15T09:36:52.765Z,94889.83
2018-05-15T09:39:19.406Z,94886.63
2018-05-15T09:41:46.044Z,94885.32
2018-05-15T09:44:12.694Z,94876.64
2018-05-15T09:46:39.337Z,94881.91
2018-05-15T09:49:06.144Z,94874.46
2018-05-15T09:51:32.884Z,94880.63
2018-05-15T09:53:59.560Z,94881.91
2018-05-15T09:56:26.166Z,94879.37
2018-05-15T09:58:52.810Z,94873.53
2018-05-15T10:01:19.446Z,94875.14
2018-05-15T10:03:47.129Z,94872.70
2018-05-15T10:06:13.731Z,94868.20
2018-05-15T10:08:40.411Z,94875.48
2018-05-15T10:11:07.195Z,94880.11
2018-05-15T10:13:33.835Z,94876.42
2018-05-15T10:16:00.481Z,94875.40
2018-05-15T10:18:27.162Z,94846.53
2018-05-15T10:20:53.779Z,94857.80
2018-05-15T10:23:20.434Z,94848.60
2018-05-15T10:25:47.065Z,94866.45
2018-05-15T10:28:13.705Z,94862.03
2018-05-15T10:30:40.341Z,94848.77
2018-05-15T10:33:07.007Z,94854.77
2018-05-15T10:35:33.636Z,94855.27
2018-05-15T10:38:00.319Z,94859.80
2018-05-15T10:40:26.952Z,94851.70
2018-05-15T10:42:53.605Z,94842.43
2018-05-15T10:45:20.252Z,94846.49
2018-05-15T10:47:46.892Z,94836.18
2018-05-15T10:50:13.613Z,94835.67
2018-05-15T10:52:40.220Z,94826.58
2018-05-15T10:55:06.893Z,94828.03
2018-05-15T10:57:33.532Z,94825.46
2018-05-15T11:00:00.270Z,94836.24
2018-05-15T11:02:26.907Z,94840.53
2018-05-15T11:04:53.552Z,94835.83
2018-05-15T11:07:20.228Z,94821.73
2018-05-15T11:09:46.886Z,94824.04
2018-05-15T11:12:13.615Z,94827.00
2018-05-15T11:14:40.277Z,94829.03
2018-05-15T11:17:07.109Z,94833.03
2018-05-15T11:19:33.744Z,94827.41
2018-05-15T11:22:00.522Z,94831.64
2018-05-15T11:24:27.163Z,94838.72
2018-05-15T11:26:53.874Z,94836.75
2018-05-15T11:29:20.530Z,94835.88
2018-05-15T11:31:47.278Z,94837.32
2018-05-15T11:34:13.918Z,94844.69
2018-05-15T11:36:40.594Z,94841.98
2018-05-15T11:39:07.249Z,94839.63
2018-05-15T11:41:33.993Z,94836.55
2018-05-15T11:44:00.570Z,94826.37
2018-05-15T11:46:27.299Z,94832.88
2018-05-15T11:48:54.489Z,94831.60
2018-05-15T11:51:21.584Z,94841.01
2018-05-15T11:53:47.284Z,94838.29
2018-05-15T11:56:13.884Z,94838.17
2018-05-15T11:58:41.444Z,94840.87
2018-05-15T12:01:08.105Z,94843.31
2018-05-15T12:03:34.769Z,94833.84
2018-05-15T12:06:01.401Z,94832.95
2018-05-15T12:08:28.064Z,94829.07
2018-05-15T12:10:54.854Z,94816.41
2018-05-15T12:13:21.498Z,94822.23
2018-05-15T12:15:48.140Z,94822.03
2018-05-15T12:18:14.811Z,94815.89
2018-05-15T12:20:41.475Z,94809.30
2018-05-15T12:23:08.081Z,94813.38
2018-05-15T12:25:34.780Z,94808.38
2018-05-15T12:28:02.824Z,94804.81
2018-05-15T12:30:28.096Z,94804.50
2018-05-15T12:32:54.780Z,94795.19
2018-05-15T12:35:21.467Z,94791.48
2018-05-15T12:37:48.166Z,94788.25
2018-05-15T12:40:14.837Z,94785.99
2018-05-15T12:42:41.457Z,94782.88
2018-05-15T12:45:08.145Z,94778.67
2018-05-15T12:47:34.780Z,94769.58
2018-05-15T12:50:01.416Z,94766.83
2018-05-15T12:52:28.102Z,94768.03
2018-05-15T12:54:54.747Z,94770.47
2018-05-15T12:57:21.383Z,94780.36
2018-05-15T12:59:48.133Z,94779.06
2018-05-15T13:02:14.846Z,94761.61
2018-05-15T13:04:41.497Z,94767.95
2018-05-15T13:07:08.278Z,94767.01
2018-05-15T13:09:34.962Z,94767.23
2018-05-15T13:12:01.637Z,94772.79
2018-05-15T13:14:28.272Z,94772.96
2018-05-15T13:16:55.029Z,94769.86
2018-05-15T13:19:21.643Z,94768.03
2018-05-15T13:21:48.288Z,94752.59
2018-05-15T13:24:14.979Z,94746.69
2018-05-15T13:26:41.657Z,94740.47
2018-05-15T13:29:08.416Z,94733.82
2018-05-15T13:31:35.179Z,94739.19
2018-05-15T13:34:01.785Z,94732.09
2018-05-15T13:36:28.435Z,94737.61
2018-05-15T13:38:55.200Z,94730.30
2018-05-15T13:41:21.896Z,94726.35
2018-05-15T13:43:48.582Z,94733.54
2018-05-15T13:46:15.297Z,94735.50
2018-05-15T13:48:41.971Z,94729.20
2018-05-15T13:51:08.613Z,94743.67
2018-05-15T13:53:35.264Z,94751.84
2018-05-15T13:56:01.944Z,94758.13
2018-05-15T13:58:28.652Z,94768.73
2018-05-15T14:03:21.982Z,94764.81
2018-05-15T14:05:48.663Z,94774.33
2018-05-15T14:08:15.300Z,94782.66
2018-05-15T14:10:41.983Z,94784.67
2018-05-15T14:13:08.660Z,94799.81
2018-05-15T14:15:35.259Z,94799.81
2018-05-15T14:18:01.941Z,94803.88
2018-05-15T14:20:28.712Z,94813.03
2018-05-15T14:22:55.317Z,94827.08
2018-05-15T14:25:21.965Z,94841.47
2018-05-15T14:27:48.637Z,94853.80
2018-05-15T14:30:15.247Z,94863.20
2018-05-15T14:32:42.013Z,94868.49
2018-05-15T14:35:08.680Z,94864.15
2018-05-15T14:37:35.322Z,94884.75
2018-05-15T14:40:02.012Z,94886.06
2018-05-15T14:42:28.843Z,94888.61
2018-05-15T14:44:58.657Z,94878.10
2018-05-15T14:47:25.820Z,94851.13
2018-05-15T14:49:52.509Z,94842.22
2018-05-15T14:52:19.160Z,94837.97
2018-05-15T14:54:45.847Z,94831.77
2018-05-15T14:57:12.582Z,94835.03
2018-05-15T14:59:39.174Z,94841.97
2018-05-15T15:02:05.949Z,94845.06
2018-05-15T15:04:32.610Z,94845.84
2018-05-15T15:06:59.252Z,94831.43
2018-05-15T15:09:25.929Z,94827.37
2018-05-15T15:11:52.609Z,94817.22
2018-05-15T15:14:19.239Z,94822.66
2018-05-15T15:16:45.911Z,94824.27
2018-05-15T15:19:13.680Z,94812.73
2018-05-15T15:21:40.394Z,94802.50
2018-05-15T15:24:07.061Z,94805.86
2018-05-15T15:26:33.741Z,94810.30
2018-05-15T15:29:00.392Z,94795.58
2018-05-15T15:31:27.028Z,94793.97
2018-05-15T15:33:53.706Z,94797.55
2018-05-15T15:36:20.364Z,94807.18
2018-05-15T15:38:47.032Z,94815.34
2018-05-15T15:41:13.635Z,94818.72
2018-05-15T15:43:40.371Z,94806.09
2018-05-15T15:46:07.009Z,94809.67
2018-05-15T15:48:33.640Z,94819.19
2018-05-15T15:51:00.335Z,94801.83
2018-05-15T15:53:28.997Z,94782.67
2018-05-15T15:55:55.698Z,94775.41
2018-05-15T15:58:22.323Z,94772.86
2018-05-15T16:00:48.964Z,94771.36
2018-05-15T16:03:15.650Z,94760.41
2018-05-15T16:05:42.278Z,94744.71
2018-05-15T16:08:08.921Z,94739.52
2018-05-15T16:10:35.574Z,94723.92
2018-05-15T16:13:02.211Z,94702.65
2018-05-15T16:15:28.921Z,94694.98
2018-05-15T16:17:55.535Z,94688.73
2018-05-15T16:20:22.236Z,94674.84
2018-05-15T16:22:50.080Z,94676.08
2018-05-15T16:25:16.667Z,94679.13
2018-05-15T16:27:43.323Z,94694.59
2018-05-15T16:30:09.984Z,94709.17
2018-05-15T16:32:36.619Z,94718.18
2018-05-15T16:35:04.129Z,94712.61
2018-05-15T16:37:30.828Z,94707.31
2018-05-15T16:39:57.444Z,94710.20
2018-05-15T16:42:24.127Z,94716.19
2018-05-15T16:44:50.768Z,94731.98
2018-05-15T16:47:17.407Z,94729.38
2018-05-15T16:49:44.112Z,94723.39
2018-05-15T16:52:10.701Z,94739.65
2018-05-15T16:54:37.384Z,94736.84
2018-05-15T16:57:04.087Z,94723.23
2018-05-15T16:59:30.719Z,94725.80
2018-05-15T17:01:57.394Z,94731.71
2018-05-15T17:04:24.069Z,94749.75
2018-05-15T17:06:50.709Z,94753.70
2018-05-15T17:09:17.346Z,94744.94
2018-05-15T17:11:44.076Z,94748.16
2018-05-15T17:14:10.680Z,94752.22
2018-05-15T17:16:37.318Z,94759.39
2018-05-15T17:19:03.966Z,94759.11
2018-05-15T17:21:30.649Z,94758.02
2018-05-15T17:23:57.334Z,94757.84
2018-05-15T17:26:24.012Z,94757.20
2018-05-15T17:28:50.690Z,94763.08
2018-05-15T17:31:17.458Z,94770.20
2018-05-15T17:33:44.035Z,94763.20
2018-05-15T17:36:10.724Z,94766.02
2018-05-15T17:38:37.372Z,94757.85
2018-05-15T17:41:04.041Z,94763.30
2018-05-15T17:43:30.726Z,94754.20
2018-05-15T17:45:57.366Z,94757.95
2018-05-15T17:48:24.015Z,94757.94
2018-05-15T17:50:50.655Z,94765.81
2018-05-15T17:53:17.297Z,94763.16
2018-05-15T17:55:43.936Z,94762.80
2018-05-15T17:58:10.567Z,94754.30
2018-05-15T18:00:37.209Z,94753.28
2018-05-15T18:03:03.853Z,94752.84
2018-05-15T18:05:30.528Z,94761.94
2018-05-15T18:07:57.157Z,94761.09
2018-05-15T18:10:23.810Z,94760.20
2018-05-15T18:12:50.448Z,94755.74
2018-05-15T18:15:17.108Z,94746.53
2018-05-15T18:17:43.728Z,94732.31
2018-05-15T18:20:10.366Z,94721.78
2018-05-15T18:22:37.011Z,94712.57
2018-05-15T18:25:03.645Z,94720.19
2018-05-15T18:27:30.357Z,94722.59
2018-05-15T18:29:56.926Z,94717.04
2018-05-15T18:32:23.578Z,94731.27
2018-05-15T18:34:50.216Z,94738.48
2018-05-15T18:37:16.899Z,94738.10
2018-05-15T18:39:43.639Z,94734.80
2018-05-15T18:42:10.276Z,94732.16
2018-05-15T18:44:36.929Z,94728.22
2018-05-15T18:47:03.604Z,94728.75
2018-05-15T18:49:30.241Z,94729.73
2018-05-15T18:51:56.923Z,94726.34
2018-05-15T18:54:23.570Z,94721.80
2018-05-15T18:56:50.250Z,94712.81
2018-05-15T18:59:16.886Z,94706.80
2018-05-15T19:01:43.573Z,94705.90
2018-05-15T19:04:10.256Z,94720.93
2018-05-15T19:06:36.940Z,94729.67
2018-05-15T19:09:03.595Z,94748.21
2018-05-15T19:11:30.236Z,94759.36
2018-05-15T19:13:56.951Z,94765.30
2018-05-15T19:16:23.560Z,94768.83
2018-05-15T19:18:50.199Z,94765.19
2018-05-15T19:21:16.834Z,94767.50
2018-05-15T19:23:43.484Z,94762.31
2018-05-15T19:26:10.161Z,94755.45
2018-05-15T19:28:36.808Z,94741.23
2018-05-15T19:31:03.453Z,94744.88
2018-05-15T19:33:30.239Z,94749.31
2018-05-15T19:35:56.758Z,94748.83
2018-05-15T19:38:23.441Z,94745.84
2018-05-15T19:40:50.085Z,94728.52
2018-05-15T19:43:16.728Z,94727.51
2018-05-15T19:45:43.397Z,94717.78
2018-05-15T19:48:10.111Z,94713.49
2018-05-15T19:50:36.717Z,94718.67
2018-05-15T19:53:03.347Z,94719.55
2018-05-15T19:55:29.985Z,94711.98
2018-05-15T19:57:56.619Z,94705.59
2018-05-15T20:00:23.349Z,94702.69
2018-05-15T20:02:49.981Z,94696.13
2018-05-15T20:05:16.647Z,94702.84
2018-05-15T20:07:43.364Z,94716.97
2018-05-15T20:10:10.014Z,94722.79
2018-05-15T20:12:36.651Z,94732.90
2018-05-15T20:15:03.333Z,94743.90
2018-05-15T20:17:30.011Z,94752.16
2018-05-15T20:19:56.644Z,94747.88
2018-05-15T20:22:23.274Z,94750.27
2018-05-15T20:24:49.957Z,94745.78
2018-05-15T20:27:16.585Z,94754.97
2018-05-15T20:29:43.284Z,94754.33
2018-05-15T20:32:09.914Z,94765.50
2018-05-15T20:34:36.559Z,94766.83
2018-05-15T20:37:03.201Z,94756.52
2018-05-15T20:39:29.837Z,94747.75
2018-05-15T20:41:56.519Z,94762.17
2018-05-15T20:44:23.201Z,94752.24
2018-05-15T20:46:49.903Z,94746.69
2018-05-15T20:49:16.539Z,94759.07
2018-05-15T20:51:43.177Z,94769.55
2018-05-15T20:54:09.877Z,94757.36
2018-05-15T20:56:36.564Z,94771.89
2018-05-15T20:59:03.241Z,94754.70
2018-05-15T21:01:29.874Z,94767.15
2018-05-15T21:03:56.555Z,94780.14
2018-05-15T21:06:23.189Z,94761.70
2018-05-15T21:08:49.818Z,94723.49
2018-05-15T21:11:16.473Z,94703.43
2018-05-15T21:13:43.153Z,94715.47
2018-05-15T21:16:09.842Z,94707.86
2018-05-15T21:18:36.479Z,94717.64
2018-05-15T21:21:03.126Z,94720.42
2018-05-15T21:23:29.806Z,94740.48
2018-05-15T21:25:56.442Z,94744.27
2018-05-15T21:28:23.077Z,94734.95
2018-05-15T21:30:49.719Z,94727.16
2018-05-15T21:33:16.398Z,94723.14
2018-05-15T21:35:43.078Z,94717.12
2018-05-15T21:38:09.714Z,94710.81
2018-05-15T21:40:38.416Z,94717.00
2018-05-15T21:43:05.054Z,94719.66
2018-05-15T21:45:31.744Z,94702.88
2018-05-15T21:47:58.382Z,94713.30
2018-05-15T21:50:25.068Z,94725.16
2018-05-15T21:52:51.705Z,94713.58
2018-05-15T21:55:18.396Z,94706.78
2018-05-15T21:57:45.032Z,94723.45
2018-05-15T22:00:11.674Z,94708.55
2018-05-15T22:02:38.361Z,94722.23
2018-05-15T22:05:05.041Z,94724.00
2018-05-15T22:07:31.674Z,94715.81
2018-05-15T22:09:58.357Z,94716.33
2018-05-15T22:12:24.993Z,94745.87
2018-05-15T22:14:51.674Z,94700.59
2018-05-15T22:17:18.311Z,94740.74
2018-05-15T22:19:44.941Z,94745.92
2018-05-15T22:22:11.585Z,94743.14
2018-05-15T22:24:38.264Z,94720.17
2018-05-15T22:27:04.965Z,94710.24
2018-05-15T22:29:31.650Z,94718.20
2018-05-15T22:31:58.325Z,94705.50
2018-05-15T22:34:25.007Z,94713.08
2018-05-15T22:36:51.637Z,94735.38
2018-05-15T22:39:18.318Z,94726.84
2018-05-15T22:41:45.079Z,94721.44
2018-05-15T22:44:11.598Z,94727.86
2018-05-15T22:46:38.279Z,94720.28
2018-05-15T22:49:04.957Z,94700.98
2018-05-15T22:51:31.598Z,94697.24
2018-05-15T22:53:58.277Z,94686.25
2018-05-15T22:56:24.918Z,94649.19
2018-05-15T22:58:51.560Z,94657.15
2018-05-15T23:01:18.203Z,94669.09
2018-05-15T23:03:44.889Z,94673.66
2018-05-15T23:06:11.530Z,94646.59
2018-05-15T23:08:38.167Z,94654.48
2018-05-15T23:11:04.860Z,94643.75
2018-05-15T23:13:31.534Z,94643.17
2018-05-15T23:15:58.172Z,94633.71
2018-05-15T23:18:24.852Z,94621.33
2018-05-15T23:20:51.535Z,94623.12
2018-05-15T23:23:18.166Z,94622.86
2018-05-15T23:25:44.845Z,94614.65
2018-05-15T23:28:11.478Z,94613.14
2018-05-15T23:30:38.214Z,94622.38
2018-05-15T23:33:04.853Z,94610.20
2018-05-15T23:35:31.494Z,94612.56
2018-05-15T23:37:58.165Z,94593.12
2018-05-15T23:40:24.800Z,94599.09
2018-05-15T23:42:51.484Z,94601.98
2018-05-15T23:45:18.152Z,94598.83
2018-05-15T23:47:44.803Z,94592.12
2018-05-15T23:50:11.478Z,94586.24
2018-05-15T23:52:38.154Z,94581.09
2018-05-15T23:55:04.791Z,94588.64
2018-05-15T23:57:31.470Z,94609.09
2018-05-15T23:59:58.110Z,94600.77
